Latest Weather Observations for Point Fawcett

IDD60901

Issued at 11:51 pm CST Thursday 30 July 2015 (issued every 10 minutes, with the page automatically refreshed every 10 minutes)

About weather observations | Map of Darwin area stations | Latest observations for Darwin area | Other Formats
Station Details ID: 200731 Name: POINT FAWCETT Lat: -11.76 Lon: 130.03 Height: 6.5 m
Data from the previous 72 hours. | See also: Recent months at Point Fawcett
Date/Time
CST
Tmp

°C
App
Tmp
°C
Dew
Point
°C
Rel
Hum
%
Delta-T

°C
Wind Press
QNH
hPa
Press
MSL
hPa
Rain
since
9 am
mm
Dir
 
Spd
km/h
Gust
km/h
Spd
kts
Gust
kts
30/11:30pm 24.7 27.2 21.8 84 1.9 WSW 11 15 6 8 1015.7 - 0.0
30/11:00pm 24.2 27.0 21.5 85 1.8 WSW 9 15 5 8 1015.9 - 0.0
30/10:30pm 24.3 26.8 21.8 86 1.7 WSW 11 15 6 8 1015.8 - 0.0
30/10:00pm 22.6 24.8 19.6 83 1.9 W 7 11 4 6 1015.6 - 0.0
30/09:30pm 23.7 25.4 20.2 81 2.3 W 11 13 6 7 1015.3 - 0.0
30/09:00pm 25.0 27.6 21.9 83 2.1 W 11 13 6 7 1014.9 1014.9 0.0
30/08:30pm 25.7 28.7 22.6 83 2.1 WNW 11 13 6 7 1014.5 - 0.0
30/08:00pm 26.1 28.3 22.6 81 2.4 NNW 15 17 8 9 1014.0 - 0.0
30/07:30pm 26.0 28.2 21.9 78 2.7 NNW 13 15 7 8 1013.6 - 0.0
30/07:00pm 26.2 27.8 21.4 75 3.2 NNW 15 19 8 10 1013.3 - 0.0
30/06:30pm 26.7 27.9 21.5 73 3.5 NNW 17 22 9 12 1013.2 - 0.0
30/06:00pm 28.0 30.0 21.5 67 4.3 NNW 13 20 7 11 1013.3 1013.3 0.0
30/05:30pm 28.6 29.2 21.1 64 5.0 NNW 19 28 10 15 1013.1 - 0.0
30/05:00pm 31.3 31.0 16.5 41 9.3 ESE 13 22 7 12 1012.9 - 0.0
30/04:30pm 31.1 30.0 17.4 44 8.7 E 19 28 10 15 1012.8 - 0.0
30/04:00pm 30.9 30.4 17.9 45 8.3 ESE 17 32 9 17 1012.7 - 0.0
30/03:30pm 31.2 31.4 18.5 46 8.2 SE 15 26 8 14 1012.8 - 0.0
30/03:00pm 31.0 30.5 17.7 45 8.5 ESE 17 30 9 16 1013.0 1013.0 0.0
30/02:30pm 31.4 31.0 18.0 44 8.6 ESE 17 28 9 15 1013.4 - 0.0
30/02:00pm 30.7 30.1 18.4 47 7.9 SE 19 30 10 16 1013.9 - 0.0
30/01:30pm 30.5 30.0 17.9 47 8.1 SE 17 26 9 14 1014.5 - 0.0
30/01:00pm 31.1 31.3 18.5 47 8.1 ESE 15 28 8 15 1015.0 - 0.0
30/12:30pm 30.6 30.7 18.3 47 7.9 SE 15 24 8 13 1015.5 - 0.0
30/12:00pm 30.4 30.4 18.2 48 7.8 SE 15 28 8 15 1015.9 1015.9 0.0
30/11:30am 30.1 30.4 17.9 48 7.8 ESE 13 26 7 14 1016.3 - 0.0
30/11:00am 29.9 29.9 18.0 48 7.6 SE 15 26 8 14 1016.5 - 0.0
30/10:30am 29.4 30.0 18.5 52 7.0 ESE 13 22 7 12 1016.4 - 0.0
30/10:00am 28.5 29.2 19.7 59 5.7 SE 15 24 8 13 1016.6 - 0.0
30/09:30am 27.2 29.8 20.5 67 4.4 SE 7 13 4 7 1016.4 - 0.0
30/09:00am 25.2 29.1 21.1 78 2.7 SE 2 7 1 4 1016.3 1016.3 0.0
30/08:30am 21.5 25.3 21.0 97 0.3 E 2 6 1 3 1016.1 - 0.0
30/08:00am 18.6 20.1 18.1 97 0.3 ESE 7 7 4 4 1015.9 - 0.0
30/07:30am 17.0 17.8 16.4 96 0.4 SE 7 9 4 5 1015.5 - 0.0
30/07:00am 17.0 17.4 16.4 96 0.4 ESE 9 13 5 7 1015.3 - 0.0
30/06:30am 17.2 17.7 16.6 96 0.4 E 9 13 5 7 1015.3 - 0.0
30/06:00am 16.9 17.2 16.1 95 0.5 E 9 11 5 6 1015.4 1015.4 0.0
30/05:30am 17.0 17.3 16.0 94 0.6 E 9 9 5 5 1015.4 - 0.0
30/05:00am 17.3 17.8 16.5 95 0.5 ESE 9 11 5 6 1015.2 - 0.0
30/04:30am 17.1 17.8 16.1 94 0.6 ESE 7 9 4 5 1015.4 - 0.0
30/04:00am 17.3 17.7 16.3 94 0.6 E 9 11 5 6 1015.6 - 0.0
30/03:30am 17.2 17.5 16.1 93 0.7 E 9 9 5 5 1015.8 - 0.0
30/03:00am 17.3 17.7 16.2 93 0.7 E 9 11 5 6 1016.0 1016.0 0.0
30/02:30am 17.5 18.2 16.2 92 0.8 E 7 9 4 5 1016.1 - 0.0
30/02:00am 18.0 18.9 16.7 92 0.8 E 7 9 4 5 1016.2 - 0.0
30/01:30am 19.0 20.1 18.0 94 0.6 E 9 11 5 6 1016.4 - 0.0
30/01:00am 18.2 19.4 16.9 92 0.8 SSE 6 7 3 4 1016.4 - 0.0
30/12:30am 18.5 19.8 17.2 92 0.8 SSE 6 7 3 4 1016.3 - 0.0
30/12:00am 18.6 19.7 17.1 91 0.9 SSE 7 9 4 5 1016.3 1016.3 0.0
 
Date/Time
CST
Tmp

°C
App
Tmp
°C
Dew
Point
°C
Rel
Hum
%
Delta-T

°C
Wind Press
QNH
hPa
Press
MSL
hPa
Rain
since
9 am
mm
Dir
 
Spd
km/h
Gust
km/h
Spd
kts
Gust
kts
29/11:30pm 18.8 19.9 17.1 90 1.0 SSE 7 9 4 5 1016.3 - 0.0
29/11:00pm 19.1 20.2 17.2 89 1.2 S 7 9 4 5 1016.4 - 0.0
29/10:30pm 19.2 20.0 17.2 88 1.2 S 9 11 5 6 1016.4 - 0.0
29/10:00pm 19.2 20.1 16.6 85 1.6 SSE 7 9 4 5 1016.3 - 0.0
29/09:30pm 19.8 20.7 16.6 82 1.9 SSE 7 9 4 5 1016.2 - 0.0
29/09:00pm 20.6 21.6 16.8 79 2.3 SSE 7 9 4 5 1016.0 1016.0 0.0
29/08:30pm 21.6 22.8 17.4 77 2.6 SSE 7 11 4 6 1015.7 - 0.0
29/08:00pm 22.5 23.8 17.6 74 3.0 SSE 7 11 4 6 1015.2 - 0.0
29/07:30pm 23.2 24.1 16.5 66 4.1 SSE 7 9 4 5 1014.8 - 0.0
29/07:00pm 25.3 26.4 17.0 60 5.1 SSE 7 9 4 5 1014.4 - 0.0
29/06:30pm 27.6 28.7 17.2 53 6.5 ESE 7 11 4 6 1014.2 - 0.0
29/06:00pm 29.4 28.1 13.6 38 9.4 E 13 20 7 11 1014.1 1014.1 0.0
29/05:30pm 30.0 27.9 13.7 37 9.8 E 17 26 9 14 1013.8 - 0.0
29/05:00pm 30.2 28.7 14.3 38 9.6 ESE 15 32 8 17 1013.7 - 0.0
29/04:30pm 30.3 28.9 15.6 41 9.1 SE 17 28 9 15 1013.5 - 0.0
29/04:00pm 29.4 27.2 14.8 41 8.9 SE 20 35 11 19 1013.5 - 0.0
29/03:30pm 30.1 28.8 15.8 42 8.9 ESE 17 32 9 17 1013.7 - 0.0
29/03:00pm 29.5 27.6 15.2 41 8.8 SE 19 32 10 17 1014.1 1014.1 0.0
29/02:30pm 30.0 28.0 14.9 39 9.2 ESE 19 32 10 17 1014.4 - 0.0
29/02:00pm 29.7 27.7 15.0 40 9.0 ESE 19 37 10 20 1014.7 - 0.0
29/01:30pm 29.1 26.9 14.9 42 8.6 SE 20 39 11 21 1015.1 - 0.0
29/01:00pm 28.9 26.7 14.3 40 8.8 ESE 19 39 10 21 1015.7 - 0.0
29/12:30pm 29.1 26.6 15.2 42 8.5 ESE 22 39 12 21 1016.1 - 0.0
29/12:00pm 28.7 26.9 15.6 45 8.0 ESE 19 35 10 19 1016.6 1016.6 0.0
29/11:30am 28.7 27.2 16.3 47 7.7 ESE 19 32 10 17 1017.0 - 0.0
29/11:00am 28.7 27.4 15.9 45 7.9 ESE 17 35 9 19 1017.2 - 0.0
29/10:30am 27.9 26.1 15.5 46 7.6 ESE 19 35 10 19 1017.5 - 0.0
29/10:00am 27.3 25.0 14.7 46 7.6 ESE 20 39 11 21 1017.6 - 0.0
29/09:30am 26.9 25.2 14.6 46 7.4 ESE 17 39 9 21 1017.7 - 0.0
29/09:00am 26.5 24.9 14.9 49 7.0 E 17 35 9 19 1017.4 1017.4 0.0
29/08:30am 25.8 25.1 15.5 53 6.2 ESE 13 24 7 13 1017.1 - 0.0
29/08:00am 24.7 23.5 15.1 55 5.8 ESE 15 28 8 15 1016.8 - 0.0
29/07:30am 23.9 23.7 15.7 60 5.0 E 11 19 6 10 1016.6 - 0.0
29/07:00am 24.1 23.5 15.6 59 5.1 ESE 13 24 7 13 1016.3 - 0.0
29/06:30am 23.8 23.4 16.3 63 4.6 ESE 13 26 7 14 1015.8 - 0.0
29/06:00am 22.5 22.5 16.3 68 3.8 ESE 11 17 6 9 1015.7 1015.7 0.0
29/05:30am 22.0 22.4 16.3 70 3.4 ESE 9 17 5 9 1015.5 - 0.0
29/05:00am 20.7 21.1 17.3 81 2.1 ESE 11 19 6 10 1015.4 - 0.0
29/04:30am 17.0 17.7 16.0 94 0.6 SE 7 9 4 5 1015.4 - 0.0
29/04:00am 16.5 17.0 15.5 94 0.6 SE 7 9 4 5 1015.4 - 0.0
29/03:30am 16.7 17.3 15.7 94 0.6 SE 7 11 4 6 1015.6 - 0.0
29/03:00am 16.6 17.3 15.6 94 0.6 SE 6 9 3 5 1015.6 1015.6 0.0
29/02:30am 16.9 17.6 16.1 95 0.5 SSE 7 9 4 5 1015.8 - 0.0
29/02:00am 16.8 17.4 15.8 94 0.6 SSE 7 9 4 5 1016.0 - 0.0
29/01:30am 16.8 17.4 15.8 94 0.6 SSE 7 11 4 6 1016.4 - 0.0
29/01:00am 17.0 17.6 15.9 93 0.6 SSE 7 9 4 5 1016.5 - 0.0
29/12:30am 16.9 17.4 15.6 92 0.8 SSE 7 9 4 5 1016.5 - 0.0
29/12:00am 16.9 17.3 15.4 91 0.9 SSE 7 9 4 5 1016.6 1016.6 0.0
 
Date/Time
CST
Tmp

°C
App
Tmp
°C
Dew
Point
°C
Rel
Hum
%
Delta-T

°C
Wind Press
QNH
hPa
Press
MSL
hPa
Rain
since
9 am
mm
Dir
 
Spd
km/h
Gust
km/h
Spd
kts
Gust
kts
28/11:30pm 16.8 17.1 15.0 89 1.0 SSE 7 11 4 6 1016.6 - 0.0
28/11:00pm 17.3 17.6 15.1 87 1.3 S 7 9 4 5 1016.7 - 0.0
28/10:30pm 17.6 18.0 15.2 86 1.4 S 7 9 4 5 1016.7 - 0.0
28/10:00pm 17.9 18.2 15.0 83 1.7 S 7 9 4 5 1016.7 - 0.0
28/09:30pm 18.3 18.1 14.6 79 2.1 S 9 11 5 6 1016.8 - 0.0
28/09:00pm 19.2 18.9 14.5 74 2.7 S 9 11 5 6 1016.7 1016.7 0.0
28/08:30pm 21.2 21.3 15.5 70 3.4 S 9 11 5 6 1016.5 - 0.0
28/08:00pm 20.5 20.3 14.8 70 3.3 SSE 9 15 5 8 1016.1 - 0.0
28/07:30pm 21.0 20.9 13.9 64 4.1 SE 7 9 4 5 1015.7 - 0.0
28/07:00pm 22.8 22.6 13.6 56 5.3 SSE 7 7 4 4 1015.4 - 0.0
28/06:30pm 26.0 26.1 13.8 47 7.2 SE 6 7 3 4 1015.1 - 0.0
28/06:00pm 28.1 27.6 12.8 38 9.0 SSE 7 11 4 6 1014.9 1014.9 0.0
28/05:30pm 29.3 28.3 12.3 35 9.9 SE 9 15 5 8 1014.7 - 0.0
28/05:00pm 29.3 27.9 12.3 35 9.9 SE 11 24 6 13 1014.6 - 0.0
28/04:30pm 29.7 27.9 12.2 34 10.2 E 13 20 7 11 1014.6 - 0.0
28/04:00pm 30.0 28.8 12.9 35 10.1 ESE 11 24 6 13 1014.7 - 0.0
28/03:30pm 29.5 28.2 13.7 38 9.5 SE 13 20 7 11 1014.8 - 0.0
28/03:00pm 30.0 28.3 12.4 34 10.3 SE 13 20 7 11 1015.1 1015.1 0.0
28/02:30pm 30.1 28.1 11.6 32 10.7 ESE 13 22 7 12 1015.4 - 0.0
28/02:00pm 29.5 26.5 10.6 31 10.8 ESE 17 30 9 16 1015.9 - 0.0
28/01:30pm 29.3 26.0 10.9 32 10.5 ESE 19 33 10 18 1016.4 - 0.0
28/01:00pm 29.2 25.7 10.8 32 10.5 ESE 20 35 11 19 1016.9 - 0.0
28/12:30pm 28.2 24.1 11.3 35 9.7 ESE 24 39 13 21 1017.2 - 0.0
28/12:00pm 28.5 25.8 11.6 35 9.7 SE 17 35 9 19 1017.4 1017.4 0.0
28/11:30am 27.6 23.9 12.8 40 8.7 SE 24 37 13 20 1017.5 - 0.0
28/11:00am 28.0 25.2 13.1 39 8.8 ESE 20 37 11 20 1017.7 - 0.0
28/10:30am 27.8 25.3 14.1 43 8.2 ESE 20 33 11 18 1017.7 - 0.0
28/10:00am 27.9 25.6 14.2 43 8.2 SE 19 33 10 18 1017.7 - 0.0
28/09:30am 27.1 24.4 13.4 42 8.1 ESE 20 32 11 17 1017.7 - 0.0
28/09:00am 26.7 24.3 14.5 47 7.3 ESE 20 33 11 18 1017.7 1017.7 0.0
28/08:30am 26.0 25.2 16.0 54 6.1 ESE 15 30 8 16 1017.5 - 0.0
28/08:00am 24.6 24.7 16.6 61 4.9 ESE 11 20 6 11 1017.3 - 0.0
28/07:30am 23.4 23.3 16.0 63 4.5 ESE 11 19 6 10 1017.1 - 0.0
28/07:00am 22.8 23.4 16.8 69 3.7 ESE 9 17 5 9 1016.8 - 0.0
28/06:30am 22.8 24.1 19.4 81 2.2 ESE 11 20 6 11 1016.6 - 0.0
28/06:00am 23.0 26.2 22.3 96 0.5 SE 9 13 5 7 1016.3 1016.3 0.0
28/05:30am 21.2 24.0 20.4 95 0.5 SSE 6 9 3 5 1016.1 - 0.0
28/05:00am 21.7 24.6 21.0 96 0.5 S 7 9 4 5 1015.9 - 0.0
28/04:30am 22.0 24.8 21.5 97 0.3 S 9 13 5 7 1015.7 - 0.0
28/04:00am 19.8 21.6 18.8 94 0.6 S 7 9 4 5 1015.6 - 0.0
28/03:30am 20.2 22.2 19.2 94 0.6 S 7 11 4 6 1015.6 - 0.0
28/03:00am 20.5 22.6 19.3 93 0.8 ESE 7 9 4 5 1015.7 1015.7 0.0
28/02:30am 20.6 22.7 19.4 93 0.8 SSE 7 9 4 5 1016.1 - 0.0
28/02:00am 20.9 23.1 19.6 92 0.8 SE 7 9 4 5 1016.3 - 0.0
28/01:30am 21.5 24.0 20.3 93 0.8 ESE 7 11 4 6 1016.5 - 0.0
28/01:00am 21.3 23.6 19.9 92 0.9 ESE 7 9 4 5 1016.7 - 0.0
28/12:30am 21.5 23.9 20.0 91 1.0 SE 7 7 4 4 1016.6 - 0.0
28/12:00am 22.0 24.5 20.3 90 1.1 ESE 7 9 4 5 1016.7 1016.7 0.0

Latest Capital City Observations: Canberra | Sydney | Melbourne | Brisbane | Adelaide | Perth | Hobart | Darwin

Other Formats:

Comma delimited format used in spreadsheet applications
http://www.bom.gov.au/fwo/IDD60901/IDD60901.94122.axf

JavaScript Object Notation format (JSON) in row-major order
http://www.bom.gov.au/fwo/IDD60901/IDD60901.94122.json